createdAt,value
2022-10-14T00:00:45.722Z,5.78
2022-10-14T00:03:12.685Z,4.63
2022-10-14T00:05:43.041Z,5.36
2022-10-14T00:08:10.955Z,6.47
2022-10-14T00:10:39.606Z,6.48
2022-10-14T00:13:07.457Z,5.52
2022-10-14T00:15:39.946Z,3.59
2022-10-14T00:18:08.323Z,6.39
2022-10-14T00:20:36.189Z,6.43
2022-10-14T00:23:03.273Z,5.42
2022-10-14T00:25:30.879Z,6.00
2022-10-14T00:28:03.896Z,3.77
2022-10-14T00:30:30.835Z,3.40
2022-10-14T00:32:57.774Z,5.16
2022-10-14T00:35:24.759Z,6.03
2022-10-14T00:37:51.598Z,3.81
2022-10-14T00:40:18.755Z,5.22
2022-10-14T00:42:45.743Z,6.17
2022-10-14T00:45:16.402Z,5.81
2022-10-14T00:47:44.783Z,4.74
2022-10-14T00:50:13.266Z,4.65
2022-10-14T00:52:40.291Z,5.36
2022-10-14T00:55:16.659Z,2.92
2022-10-14T00:57:44.408Z,6.23
2022-10-14T01:00:18.771Z,1.99
2022-10-14T01:02:47.034Z,4.48
2022-10-14T01:05:16.565Z,5.78
2022-10-14T01:08:04.590Z,5.42
2022-10-14T01:10:56.457Z,5.99
2022-10-14T01:13:31.775Z,5.41
2022-10-14T01:16:25.966Z,5.94
2022-10-14T01:19:22.822Z,3.32
2022-10-14T01:21:56.374Z,3.19
2022-10-14T01:24:54.738Z,6.04
2022-10-14T01:27:27.898Z,6.13
2022-10-14T01:30:10.016Z,6.17
2022-10-14T01:32:39.627Z,6.21
2022-10-14T01:35:13.816Z,5.49
2022-10-14T01:37:49.285Z,6.22
2022-10-14T01:40:25.782Z,5.03
2022-10-14T01:42:54.210Z,-2.11
2022-10-14T01:45:23.918Z,6.33
2022-10-14T01:47:53.684Z,4.41
2022-10-14T01:50:25.358Z,6.38
2022-10-14T01:53:15.883Z,4.94
2022-10-14T01:55:46.906Z,5.79
2022-10-14T01:58:17.296Z,3.76
2022-10-14T02:00:44.415Z,4.70
2022-10-14T02:03:13.565Z,5.46
2022-10-14T02:05:43.548Z,6.42
2022-10-14T02:08:17.156Z,6.35
2022-10-14T02:10:53.888Z,6.35
2022-10-14T02:13:35.635Z,6.33
2022-10-14T02:16:25.631Z,6.27
2022-10-14T02:18:55.392Z,6.32
2022-10-14T02:21:34.756Z,3.70
2022-10-14T02:24:24.988Z,5.42
2022-10-14T02:26:55.071Z,6.23
2022-10-14T02:29:24.061Z,5.25
2022-10-14T02:31:52.177Z,3.28
2022-10-14T02:34:23.310Z,4.49
2022-10-14T02:36:51.508Z,6.15
2022-10-14T02:39:39.711Z,5.64
2022-10-14T02:42:06.917Z,3.92
2022-10-14T02:44:33.908Z,3.83
2022-10-14T02:47:01.175Z,6.04
2022-10-14T02:49:28.198Z,4.39
2022-10-14T02:51:55.373Z,5.96
2022-10-14T02:54:22.364Z,5.18
2022-10-14T02:56:49.306Z,-2.52
2022-10-14T02:59:16.380Z,4.04
2022-10-14T03:01:43.360Z,5.52
2022-10-14T03:04:10.392Z,3.98
2022-10-14T03:06:37.354Z,4.96
2022-10-14T03:09:04.239Z,5.89
2022-10-14T03:11:31.211Z,-3.62
2022-10-14T03:13:58.282Z,1.27
2022-10-14T03:16:25.227Z,4.37
2022-10-14T03:18:52.170Z,3.27
2022-10-14T03:21:19.090Z,4.25
2022-10-14T03:23:46.092Z,3.54
2022-10-14T03:26:14.208Z,-2.05
2022-10-14T03:28:41.488Z,3.18
2022-10-14T03:31:08.619Z,2.13
2022-10-14T03:33:35.603Z,5.14
2022-10-14T03:36:02.606Z,4.37
2022-10-14T03:38:29.592Z,2.08
2022-10-14T03:40:56.821Z,6.11
2022-10-14T03:43:23.811Z,2.24
2022-10-14T03:45:50.935Z,5.35
2022-10-14T03:48:18.015Z,6.05
2022-10-14T03:50:44.979Z,0.25
2022-10-14T03:53:11.975Z,4.82
2022-10-14T03:55:39.143Z,5.18
2022-10-14T03:58:06.386Z,5.05
2022-10-14T04:00:35.907Z,6.14
2022-10-14T04:03:03.021Z,5.11
2022-10-14T04:05:34.136Z,1.31
2022-10-14T04:08:01.864Z,6.25
2022-10-14T04:10:29.082Z,6.21
2022-10-14T04:12:56.640Z,6.22
2022-10-14T04:15:24.671Z,6.24
2022-10-14T04:17:52.230Z,1.09
2022-10-14T04:20:23.758Z,6.27
2022-10-14T04:22:50.722Z,5.38
2022-10-14T04:25:17.779Z,4.80
2022-10-14T04:27:44.709Z,5.89
2022-10-14T04:30:12.379Z,3.38
2022-10-14T04:32:39.332Z,5.41
2022-10-14T04:35:06.754Z,5.50
2022-10-14T04:37:33.706Z,3.29
2022-10-14T04:40:00.677Z,5.39
2022-10-14T04:42:27.708Z,5.89
2022-10-14T04:44:54.950Z,5.10
2022-10-14T04:47:21.963Z,1.24
2022-10-14T04:49:48.911Z,3.99
2022-10-14T04:52:16.213Z,5.85
2022-10-14T04:54:43.172Z,1.45
2022-10-14T04:57:10.397Z,4.75
2022-10-14T04:59:42.278Z,4.79
2022-10-14T05:02:09.341Z,5.08
2022-10-14T05:04:36.319Z,5.38
2022-10-14T05:07:03.479Z,5.69
2022-10-14T05:09:30.525Z,4.77
2022-10-14T05:11:58.756Z,5.46
2022-10-14T05:14:26.261Z,6.06
2022-10-14T05:16:53.246Z,-1.30
2022-10-14T05:19:20.175Z,5.02
2022-10-14T05:21:47.249Z,6.11
2022-10-14T05:24:14.226Z,5.43
2022-10-14T05:26:41.197Z,5.71
2022-10-14T05:29:10.338Z,5.45
2022-10-14T05:31:39.338Z,4.85
2022-10-14T05:34:06.369Z,5.78
2022-10-14T05:36:33.302Z,5.74
2022-10-14T05:39:01.576Z,5.15
2022-10-14T05:41:28.716Z,6.85
2022-10-14T05:43:55.843Z,6.84
2022-10-14T05:46:22.785Z,5.34
2022-10-14T05:48:53.829Z,5.97
2022-10-14T05:51:21.579Z,5.32
2022-10-14T05:53:49.233Z,6.98
2022-10-14T05:56:16.441Z,5.98
2022-10-14T05:58:43.868Z,4.33
2022-10-14T06:01:11.839Z,7.10
2022-10-14T06:03:39.050Z,6.15
2022-10-14T06:06:06.596Z,7.19
2022-10-14T06:08:33.529Z,6.83
2022-10-14T06:11:03.841Z,6.54
2022-10-14T06:13:31.053Z,5.21
2022-10-14T06:15:58.140Z,5.40
2022-10-14T06:18:27.229Z,6.88
2022-10-14T06:20:55.725Z,7.43
2022-10-14T06:23:22.880Z,4.76
2022-10-14T06:25:50.379Z,6.39
2022-10-14T06:28:17.571Z,2.81
2022-10-14T06:30:50.941Z,6.03
2022-10-14T06:33:18.043Z,6.11
2022-10-14T06:35:45.369Z,6.31
2022-10-14T06:38:12.862Z,7.96
2022-10-14T06:40:40.167Z,6.37
2022-10-14T06:43:07.513Z,7.09
2022-10-14T06:45:34.577Z,6.69
2022-10-14T06:48:02.393Z,8.38
2022-10-14T06:50:29.388Z,6.79
2022-10-14T06:52:56.368Z,7.42
2022-10-14T06:55:23.520Z,7.65
2022-10-14T06:57:50.461Z,7.84
2022-10-14T07:00:17.933Z,7.74
2022-10-14T07:02:45.367Z,7.34
2022-10-14T07:05:12.690Z,5.34
2022-10-14T07:07:39.899Z,8.98
2022-10-14T07:10:07.380Z,7.96
2022-10-14T07:12:34.579Z,7.38
2022-10-14T07:15:01.790Z,9.28
2022-10-14T07:17:28.758Z,6.15
2022-10-14T07:19:55.741Z,7.35
2022-10-14T07:22:23.025Z,8.37
2022-10-14T07:24:50.266Z,3.40
2022-10-14T07:27:17.338Z,7.63
2022-10-14T07:29:44.297Z,9.31
2022-10-14T07:32:11.204Z,7.55
2022-10-14T07:34:38.449Z,7.18
2022-10-14T07:37:05.542Z,9.28
2022-10-14T07:39:32.492Z,9.03
2022-10-14T07:41:59.486Z,7.25
2022-10-14T07:44:27.504Z,7.23
2022-10-14T07:46:54.899Z,9.42
2022-10-14T07:49:23.072Z,7.06
2022-10-14T07:51:50.561Z,8.36
2022-10-14T07:54:23.901Z,9.68
2022-10-14T07:56:51.262Z,9.63
2022-10-14T07:59:20.457Z,9.70
2022-10-14T08:01:48.484Z,4.57
2022-10-14T08:04:15.821Z,9.68
2022-10-14T08:06:42.767Z,7.81
2022-10-14T08:09:11.491Z,10.07
2022-10-14T08:11:39.103Z,4.22
2022-10-14T08:14:06.330Z,9.32
2022-10-14T08:16:35.492Z,10.12
2022-10-14T08:19:12.581Z,9.03
2022-10-14T08:21:42.299Z,9.50
2022-10-14T08:24:10.204Z,9.12
2022-10-14T08:26:39.537Z,10.71
2022-10-14T08:29:10.932Z,10.77
2022-10-14T08:31:40.757Z,10.78
2022-10-14T08:34:07.736Z,6.10
2022-10-14T08:36:34.717Z,9.28
2022-10-14T08:39:04.705Z,10.00
2022-10-14T08:41:44.770Z,10.43
2022-10-14T08:44:29.152Z,11.60
2022-10-14T08:47:02.473Z,11.25
2022-10-14T08:49:38.581Z,11.89
2022-10-14T08:52:11.376Z,11.25
2022-10-14T08:54:45.367Z,11.81
2022-10-14T08:57:17.379Z,12.30
2022-10-14T08:59:45.210Z,11.11
2022-10-14T09:02:24.748Z,11.07
2022-10-14T09:04:51.773Z,11.86
2022-10-14T09:07:21.174Z,10.01
2022-10-14T09:09:52.051Z,12.49
2022-10-14T09:12:27.519Z,11.99
2022-10-14T09:15:06.822Z,12.64
2022-10-14T09:17:40.532Z,11.88
2022-10-14T09:20:16.834Z,12.78
2022-10-14T09:22:44.029Z,12.67
2022-10-14T09:25:16.096Z,10.58
2022-10-14T09:27:43.390Z,10.87
2022-10-14T09:30:16.342Z,12.17
2022-10-14T09:32:54.926Z,13.43
2022-10-14T09:35:35.944Z,13.63
2022-10-14T09:38:02.912Z,11.38
2022-10-14T09:40:33.978Z,13.30
2022-10-14T09:43:10.140Z,13.82
2022-10-14T09:46:01.991Z,13.76
2022-10-14T09:48:44.749Z,12.92
2022-10-14T09:51:19.778Z,12.58
2022-10-14T09:53:52.260Z,13.49
2022-10-14T09:56:42.935Z,12.53
2022-10-14T09:59:20.023Z,13.78
2022-10-14T10:02:00.765Z,12.50
2022-10-14T10:04:47.895Z,12.71
2022-10-14T10:07:34.193Z,13.23
2022-10-14T10:10:05.416Z,12.40
2022-10-14T10:12:34.862Z,13.62
2022-10-14T10:15:05.624Z,11.96
2022-10-14T10:17:35.921Z,11.37
2022-10-14T10:20:33.881Z,13.84
2022-10-14T10:23:25.603Z,13.02
2022-10-14T10:25:53.087Z,14.09
2022-10-14T10:28:32.042Z,14.03
2022-10-14T10:31:36.543Z,14.21
2022-10-14T10:34:52.919Z,13.65
2022-10-14T10:37:25.775Z,14.55
2022-10-14T10:40:05.200Z,11.86
2022-10-14T10:42:43.489Z,14.44
2022-10-14T10:45:52.573Z,14.44
2022-10-14T10:48:21.430Z,14.56
2022-10-14T10:51:02.779Z,13.17
2022-10-14T10:53:43.835Z,14.57
2022-10-14T10:56:33.944Z,12.34
2022-10-14T11:02:12.563Z,14.45
2022-10-14T11:04:46.769Z,14.55
2022-10-14T11:08:06.782Z,14.44
2022-10-14T11:11:29.829Z,14.49
2022-10-14T11:14:20.603Z,13.55
2022-10-14T11:17:01.753Z,14.61
2022-10-14T11:19:55.250Z,13.50
2022-10-14T11:22:48.171Z,14.58
2022-10-14T11:25:25.677Z,14.67
2022-10-14T11:28:11.178Z,13.91
2022-10-14T11:30:52.324Z,14.76
2022-10-14T11:33:25.065Z,14.74
2022-10-14T11:36:13.674Z,14.51
2022-10-14T11:39:00.054Z,14.63
2022-10-14T11:41:46.378Z,14.78
2022-10-14T11:47:06.154Z,13.85
2022-10-14T11:49:43.194Z,13.15
2022-10-14T11:52:18.340Z,13.18
2022-10-14T11:54:49.541Z,8.69
2022-10-14T11:57:25.846Z,13.98
2022-10-14T12:00:01.709Z,14.65
2022-10-14T12:02:47.958Z,13.81
2022-10-14T12:05:24.451Z,12.95
2022-10-14T12:08:00.318Z,9.87
2022-10-14T12:10:51.475Z,13.50
2022-10-14T12:13:32.641Z,11.89
2022-10-14T12:16:01.563Z,13.67
2022-10-14T12:18:31.441Z,14.41
2022-10-14T12:21:10.808Z,14.45
2022-10-14T12:23:44.078Z,13.33
2022-10-14T12:26:26.385Z,9.32
2022-10-14T12:28:54.990Z,13.61
2022-10-14T12:31:35.971Z,14.67
2022-10-14T12:34:11.919Z,14.72
2022-10-14T12:36:40.903Z,13.78
2022-10-14T12:39:20.071Z,14.81
2022-10-14T12:42:06.395Z,14.70
2022-10-14T12:44:49.770Z,12.99
2022-10-14T12:47:36.236Z,14.05
2022-10-14T12:50:13.961Z,14.18
2022-10-14T12:52:45.258Z,13.57
2022-10-14T12:55:21.824Z,11.23
2022-10-14T12:57:58.506Z,14.35
2022-10-14T13:00:25.452Z,14.38
2022-10-14T13:02:56.595Z,14.43
2022-10-14T13:05:32.915Z,14.49
2022-10-14T13:08:15.101Z,14.56
2022-10-14T13:10:46.824Z,14.63
2022-10-14T13:13:39.084Z,14.70
2022-10-14T13:16:28.648Z,14.73
2022-10-14T13:19:03.119Z,13.74
2022-10-14T13:21:49.930Z,14.73
2022-10-14T13:24:42.104Z,14.67
2022-10-14T13:27:12.955Z,5.51
2022-10-14T13:30:00.113Z,14.49
2022-10-14T13:32:45.572Z,13.03
2022-10-14T13:35:31.446Z,14.12
2022-10-14T13:38:08.311Z,14.18
2022-10-14T13:40:38.989Z,9.88
2022-10-14T13:43:20.150Z,11.36
2022-10-14T13:45:48.860Z,14.60
2022-10-14T13:48:30.369Z,9.86
2022-10-14T13:51:35.114Z,13.09
2022-10-14T13:54:25.014Z,14.69
2022-10-14T14:00:37.303Z,13.90
2022-10-14T14:02:38.871Z,13.49
2022-10-14T14:05:06.290Z,14.17
2022-10-14T14:10:25.574Z,14.96
2022-10-14T14:12:52.990Z,14.01
2022-10-14T14:15:30.241Z,14.47
2022-10-14T14:17:57.418Z,14.39
2022-10-14T14:20:28.675Z,12.07
2022-10-14T14:22:58.859Z,14.73
2022-10-14T14:25:50.657Z,14.11
2022-10-14T14:28:19.275Z,14.77
2022-10-14T14:30:54.979Z,14.71
2022-10-14T14:33:31.653Z,14.61
2022-10-14T14:36:04.509Z,13.93
2022-10-14T14:38:37.299Z,14.38
2022-10-14T14:41:17.311Z,14.32
2022-10-14T14:43:53.302Z,14.26
2022-10-14T14:46:40.305Z,14.15
2022-10-14T14:49:09.247Z,13.28
2022-10-14T14:51:39.618Z,14.04
2022-10-14T14:54:07.419Z,14.11
2022-10-14T14:56:44.361Z,14.08
2022-10-14T14:59:26.424Z,14.05
2022-10-14T15:01:54.404Z,12.47
2022-10-14T15:04:25.618Z,13.63
2022-10-14T15:07:06.536Z,13.89
2022-10-14T15:09:39.281Z,13.80
2022-10-14T15:12:15.950Z,11.56
2022-10-14T15:14:50.629Z,13.39
2022-10-14T15:17:38.178Z,13.65
2022-10-14T15:20:05.283Z,13.59
2022-10-14T15:22:36.809Z,13.52
2022-10-14T15:25:09.086Z,13.37
2022-10-14T15:27:35.942Z,13.42
2022-10-14T15:30:18.256Z,13.38
2022-10-14T15:32:45.337Z,12.14
2022-10-14T15:35:17.572Z,12.41
2022-10-14T15:37:44.769Z,12.12
2022-10-14T15:40:22.763Z,12.27
2022-10-14T15:42:50.979Z,13.26
2022-10-14T15:45:19.351Z,13.21
2022-10-14T15:47:52.362Z,12.96
2022-10-14T15:50:23.059Z,12.93
2022-10-14T15:52:51.133Z,7.64
2022-10-14T15:55:20.798Z,10.21
2022-10-14T15:57:50.183Z,12.72
2022-10-14T16:00:19.371Z,13.02
2022-10-14T16:02:53.982Z,12.99
2022-10-14T16:05:22.238Z,12.14
2022-10-14T16:07:49.745Z,12.87
2022-10-14T16:10:20.290Z,12.35
2022-10-14T16:12:47.903Z,12.98
2022-10-14T16:15:41.460Z,12.29
2022-10-14T16:18:11.679Z,13.02
2022-10-14T16:20:38.977Z,12.91
2022-10-14T16:23:06.377Z,12.08
2022-10-14T16:25:45.183Z,12.32
2022-10-14T16:28:13.804Z,12.38
2022-10-14T16:30:54.748Z,12.92
2022-10-14T16:33:22.499Z,6.53
2022-10-14T16:35:54.889Z,12.77
2022-10-14T16:38:22.980Z,11.62
2022-10-14T16:40:58.048Z,3.45
2022-10-14T16:43:25.974Z,12.45
2022-10-14T16:45:53.140Z,11.47
2022-10-14T16:48:20.166Z,11.65
2022-10-14T16:50:51.068Z,11.68
2022-10-14T16:53:36.508Z,10.40
2022-10-14T16:56:04.268Z,12.71
2022-10-14T16:58:31.158Z,10.08
2022-10-14T17:00:58.081Z,11.40
2022-10-14T17:03:25.067Z,11.87
2022-10-14T17:06:01.109Z,12.69
2022-10-14T17:08:28.482Z,10.75
2022-10-14T17:10:58.378Z,12.30
2022-10-14T17:13:25.475Z,11.25
2022-10-14T17:16:04.824Z,12.67
2022-10-14T17:18:34.857Z,11.78
2022-10-14T17:21:14.799Z,12.58
2022-10-14T17:23:44.047Z,12.52
2022-10-14T17:26:18.598Z,12.49
2022-10-14T17:28:47.331Z,11.76
2022-10-14T17:31:17.143Z,11.78
2022-10-14T17:33:44.338Z,11.58
2022-10-14T17:36:21.192Z,11.53
2022-10-14T17:38:51.060Z,12.36
2022-10-14T17:41:18.841Z,12.32
2022-10-14T17:43:49.754Z,10.93
2022-10-14T17:46:20.942Z,11.30
2022-10-14T17:48:56.651Z,11.58
2022-10-14T17:51:25.652Z,9.78
2022-10-14T17:53:58.531Z,12.11
2022-10-14T17:56:27.525Z,10.16
2022-10-14T17:58:55.779Z,10.85
2022-10-14T18:01:36.902Z,10.83
2022-10-14T18:04:04.601Z,10.99
2022-10-14T18:06:33.709Z,11.96
2022-10-14T18:09:12.545Z,10.52
2022-10-14T18:14:30.619Z,11.78
2022-10-14T18:16:59.613Z,11.75
2022-10-14T18:19:27.528Z,10.69
2022-10-14T18:21:54.511Z,9.81
2022-10-14T18:24:21.547Z,6.96
2022-10-14T18:26:52.649Z,3.48
2022-10-14T18:29:19.834Z,11.68
2022-10-14T18:31:49.628Z,6.86
2022-10-14T18:34:16.823Z,10.12
2022-10-14T18:36:44.098Z,10.16
2022-10-14T18:39:12.547Z,10.09
2022-10-14T18:41:39.931Z,11.64
2022-10-14T18:44:07.343Z,8.56
2022-10-14T18:46:37.447Z,11.56
2022-10-14T18:49:06.324Z,11.25
2022-10-14T18:51:35.476Z,11.63
2022-10-14T18:54:06.397Z,10.54
2022-10-14T18:56:38.535Z,11.61
2022-10-14T18:59:14.150Z,8.40
2022-10-14T19:01:42.418Z,11.53
2022-10-14T19:04:13.325Z,11.61
2022-10-14T19:06:40.110Z,11.59
2022-10-14T19:09:07.085Z,10.49
2022-10-14T19:11:35.682Z,11.45
2022-10-14T19:14:04.645Z,10.67
2022-10-14T19:16:34.090Z,11.13
2022-10-14T19:19:18.741Z,10.95
2022-10-14T19:21:48.746Z,10.23
2022-10-14T19:24:16.358Z,11.62
2022-10-14T19:26:45.957Z,10.43
2022-10-14T19:29:15.647Z,11.64
2022-10-14T19:31:44.363Z,11.36
2022-10-14T19:34:14.088Z,10.32
2022-10-14T19:36:42.409Z,11.63
2022-10-14T19:39:13.766Z,11.60
2022-10-14T19:41:44.704Z,5.74
2022-10-14T19:44:13.185Z,11.56
2022-10-14T19:46:40.676Z,10.33
2022-10-14T19:49:07.736Z,10.45
2022-10-14T19:51:35.655Z,11.39
2022-10-14T19:54:03.502Z,11.42
2022-10-14T19:56:31.321Z,11.37
2022-10-14T19:58:59.380Z,10.08
2022-10-14T20:01:29.236Z,9.44
2022-10-14T20:03:56.975Z,8.30
2022-10-14T20:06:24.504Z,9.89
2022-10-14T20:08:51.721Z,10.11
2022-10-14T20:11:20.160Z,11.13
2022-10-14T20:13:47.318Z,10.05
2022-10-14T20:16:14.445Z,9.60
2022-10-14T20:18:42.063Z,10.98
2022-10-14T20:21:12.023Z,10.09
2022-10-14T20:23:39.458Z,10.86
2022-10-14T20:26:18.566Z,10.88
2022-10-14T20:28:46.829Z,10.84
2022-10-14T20:31:16.769Z,8.31
2022-10-14T20:33:44.211Z,10.77
2022-10-14T20:36:17.561Z,10.06
2022-10-14T20:38:45.536Z,9.50
2022-10-14T20:41:14.431Z,9.62
2022-10-14T20:43:42.658Z,0.26
2022-10-14T20:46:10.151Z,9.43
2022-10-14T20:48:40.456Z,7.46
2022-10-14T20:51:10.306Z,8.94
2022-10-14T20:53:37.739Z,6.65
2022-10-14T20:56:07.196Z,10.37
2022-10-14T20:58:34.239Z,9.44
2022-10-14T21:01:12.956Z,10.29
2022-10-14T21:03:41.105Z,10.23
2022-10-14T21:06:10.534Z,10.25
2022-10-14T21:08:38.025Z,10.23
2022-10-14T21:11:10.542Z,8.49
2022-10-14T21:13:41.944Z,0.03
2022-10-14T21:16:30.122Z,10.16
2022-10-14T21:19:06.031Z,9.12
2022-10-14T21:21:39.326Z,6.87
2022-10-14T21:24:06.985Z,3.59
2022-10-14T21:26:34.130Z,4.48
2022-10-14T21:29:04.801Z,8.86
2022-10-14T21:31:32.005Z,7.10
2022-10-14T21:34:05.389Z,10.02
2022-10-14T21:36:33.817Z,9.98
2022-10-14T21:39:04.279Z,9.96
2022-10-14T21:41:31.687Z,6.40
2022-10-14T21:43:59.394Z,8.46
2022-10-14T21:46:27.567Z,9.87
2022-10-14T21:48:57.446Z,8.91
2022-10-14T21:51:27.534Z,9.49
2022-10-14T21:53:59.232Z,9.83
2022-10-14T21:56:27.209Z,9.80
2022-10-14T21:58:54.396Z,8.33
2022-10-14T22:01:27.500Z,7.31
2022-10-14T22:04:00.132Z,9.70
2022-10-14T22:06:28.137Z,9.69
2022-10-14T22:08:57.693Z,8.36
2022-10-14T22:11:35.329Z,9.66
2022-10-14T22:14:03.969Z,9.59
2022-10-14T22:16:31.611Z,9.55
2022-10-14T22:19:00.493Z,9.54
2022-10-14T22:21:29.925Z,9.54
2022-10-14T22:23:58.584Z,8.64
2022-10-14T22:26:27.017Z,8.10
2022-10-14T22:29:02.474Z,9.49
2022-10-14T22:31:33.283Z,9.50
2022-10-14T22:34:02.182Z,7.73
2022-10-14T22:36:29.896Z,9.47
2022-10-14T22:38:58.674Z,9.46
2022-10-14T22:41:29.791Z,7.52
2022-10-14T22:44:00.571Z,9.45
2022-10-14T22:46:30.406Z,9.40
2022-10-14T22:49:01.123Z,6.83
2022-10-14T22:51:31.119Z,7.22
2022-10-14T22:53:58.473Z,8.99
2022-10-14T22:56:27.697Z,9.36
2022-10-14T22:58:55.439Z,9.35
2022-10-14T23:01:23.614Z,4.10
2022-10-14T23:03:50.811Z,9.23
2022-10-14T23:06:17.868Z,8.21
2022-10-14T23:08:45.266Z,7.50
2022-10-14T23:11:18.240Z,9.17
2022-10-14T23:13:46.133Z,3.70
2022-10-14T23:16:15.503Z,9.19
2022-10-14T23:18:43.598Z,7.65
2022-10-14T23:21:10.650Z,9.08
2022-10-14T23:23:38.014Z,7.83
2022-10-14T23:26:05.646Z,9.02
2022-10-14T23:28:32.607Z,7.63
2022-10-14T23:30:59.552Z,5.07
2022-10-14T23:33:26.485Z,6.95
2022-10-14T23:35:53.569Z,8.58
2022-10-14T23:38:20.544Z,7.90
2022-10-14T23:40:47.530Z,8.77
2022-10-14T23:43:14.579Z,7.77
2022-10-14T23:45:41.616Z,8.52
2022-10-14T23:48:09.163Z,8.92
2022-10-14T23:50:36.075Z,7.78
2022-10-14T23:53:03.166Z,7.47
2022-10-14T23:55:30.879Z,5.86
2022-10-14T23:57:58.005Z,7.99
